sensor_id;sensor_type;location;lat;lon;timestamp;temperature;humidity
11242;DHT22;5678;52.370;9.006;2022-10-16T00:02:26;12.10;99.90
11242;DHT22;5678;52.370;9.006;2022-10-16T00:04:54;11.60;99.90
11242;DHT22;5678;52.370;9.006;2022-10-16T00:07:22;11.60;99.90
11242;DHT22;5678;52.370;9.006;2022-10-16T00:09:52;11.60;99.90
11242;DHT22;5678;52.370;9.006;2022-10-16T00:12:19;11.60;99.90
11242;DHT22;5678;52.370;9.006;2022-10-16T00:14:48;11.60;99.90
11242;DHT22;5678;52.370;9.006;2022-10-16T00:17:16;11.70;99.90
11242;DHT22;5678;52.370;9.006;2022-10-16T00:19:44;11.70;99.90
11242;DHT22;5678;52.370;9.006;2022-10-16T00:22:12;11.80;99.90
11242;DHT22;5678;52.370;9.006;2022-10-16T00:24:40;11.80;99.90
11242;DHT22;5678;52.370;9.006;2022-10-16T00:27:09;11.80;99.90
11242;DHT22;5678;52.370;9.006;2022-10-16T00:29:37;11.90;99.90
11242;DHT22;5678;52.370;9.006;2022-10-16T00:32:05;12.00;99.90
11242;DHT22;5678;52.370;9.006;2022-10-16T00:34:33;12.00;99.90
11242;DHT22;5678;52.370;9.006;2022-10-16T00:37:00;12.10;99.90
11242;DHT22;5678;52.370;9.006;2022-10-16T00:39:28;12.20;99.90
11242;DHT22;5678;52.370;9.006;2022-10-16T00:41:56;12.10;99.90
11242;DHT22;5678;52.370;9.006;2022-10-16T00:44:49;12.10;99.90
11242;DHT22;5678;52.370;9.006;2022-10-16T00:47:22;12.20;99.90
11242;DHT22;5678;52.370;9.006;2022-10-16T00:49:56;12.10;99.90
11242;DHT22;5678;52.370;9.006;2022-10-16T00:52:25;12.10;99.90
11242;DHT22;5678;52.370;9.006;2022-10-16T00:54:54;12.10;99.90
11242;DHT22;5678;52.370;9.006;2022-10-16T00:57:23;12.10;99.90
11242;DHT22;5678;52.370;9.006;2022-10-16T00:59:54;12.10;99.90
11242;DHT22;5678;52.370;9.006;2022-10-16T01:02:22;12.10;99.90
11242;DHT22;5678;52.370;9.006;2022-10-16T01:04:52;12.10;99.90
11242;DHT22;5678;52.370;9.006;2022-10-16T01:07:30;12.10;99.90
11242;DHT22;5678;52.370;9.006;2022-10-16T01:10:07;12.10;99.90
11242;DHT22;5678;52.370;9.006;2022-10-16T01:12:41;12.90;99.90
11242;DHT22;5678;52.370;9.006;2022-10-16T01:15:20;12.00;99.90
11242;DHT22;5678;52.370;9.006;2022-10-16T01:17:53;12.00;99.90
11242;DHT22;5678;52.370;9.006;2022-10-16T01:20:29;12.00;99.90
11242;DHT22;5678;52.370;9.006;2022-10-16T01:23:05;12.00;99.90
11242;DHT22;5678;52.370;9.006;2022-10-16T01:25:45;12.00;99.90
11242;DHT22;5678;52.370;9.006;2022-10-16T01:28:21;11.90;99.90
11242;DHT22;5678;52.370;9.006;2022-10-16T01:30:53;11.90;99.90
11242;DHT22;5678;52.370;9.006;2022-10-16T01:33:26;12.90;99.90
11242;DHT22;5678;52.370;9.006;2022-10-16T01:35:58;11.90;99.90
11242;DHT22;5678;52.370;9.006;2022-10-16T01:38:30;11.90;99.90
11242;DHT22;5678;52.370;9.006;2022-10-16T01:41:01;11.90;99.90
11242;DHT22;5678;52.370;9.006;2022-10-16T01:43:37;11.90;99.90
11242;DHT22;5678;52.370;9.006;2022-10-16T01:46:07;11.70;99.90
11242;DHT22;5678;52.370;9.006;2022-10-16T01:48:35;11.70;99.90
11242;DHT22;5678;52.370;9.006;2022-10-16T01:51:06;11.60;99.90
11242;DHT22;5678;52.370;9.006;2022-10-16T01:53:37;11.60;99.90
11242;DHT22;5678;52.370;9.006;2022-10-16T01:56:07;11.60;99.90
11242;DHT22;5678;52.370;9.006;2022-10-16T01:58:41;11.50;99.90
11242;DHT22;5678;52.370;9.006;2022-10-16T02:01:13;12.00;99.90
11242;DHT22;5678;52.370;9.006;2022-10-16T02:03:43;11.50;99.90
11242;DHT22;5678;52.370;9.006;2022-10-16T02:06:12;11.40;99.90
11242;DHT22;5678;52.370;9.006;2022-10-16T02:08:40;11.90;99.90
11242;DHT22;5678;52.370;9.006;2022-10-16T02:11:10;11.70;99.90
11242;DHT22;5678;52.370;9.006;2022-10-16T02:13:43;12.20;99.90
11242;DHT22;5678;52.370;9.006;2022-10-16T02:16:13;11.30;99.90
11242;DHT22;5678;52.370;9.006;2022-10-16T02:18:42;11.30;99.90
11242;DHT22;5678;52.370;9.006;2022-10-16T02:21:16;11.20;99.90
11242;DHT22;5678;52.370;9.006;2022-10-16T02:23:50;11.20;99.90
11242;DHT22;5678;52.370;9.006;2022-10-16T02:26:25;12.60;99.90
11242;DHT22;5678;52.370;9.006;2022-10-16T02:29:00;11.20;99.90
11242;DHT22;5678;52.370;9.006;2022-10-16T02:31:32;11.20;99.90
11242;DHT22;5678;52.370;9.006;2022-10-16T02:34:03;11.20;99.90
11242;DHT22;5678;52.370;9.006;2022-10-16T02:36:32;12.60;99.90
11242;DHT22;5678;52.370;9.006;2022-10-16T02:39:01;11.30;99.90
11242;DHT22;5678;52.370;9.006;2022-10-16T02:41:31;11.30;99.90
11242;DHT22;5678;52.370;9.006;2022-10-16T02:44:00;11.70;99.90
11242;DHT22;5678;52.370;9.006;2022-10-16T02:46:28;11.30;99.90
11242;DHT22;5678;52.370;9.006;2022-10-16T02:48:56;11.30;99.90
11242;DHT22;5678;52.370;9.006;2022-10-16T02:51:24;11.20;99.90
11242;DHT22;5678;52.370;9.006;2022-10-16T02:53:52;12.20;99.90
11242;DHT22;5678;52.370;9.006;2022-10-16T02:56:20;11.20;99.90
11242;DHT22;5678;52.370;9.006;2022-10-16T02:58:48;11.10;99.90
11242;DHT22;5678;52.370;9.006;2022-10-16T03:01:17;12.90;99.90
11242;DHT22;5678;52.370;9.006;2022-10-16T03:03:45;11.90;99.90
11242;DHT22;5678;52.370;9.006;2022-10-16T03:06:13;13.20;99.90
11242;DHT22;5678;52.370;9.006;2022-10-16T03:08:41;11.00;99.90
11242;DHT22;5678;52.370;9.006;2022-10-16T03:11:09;11.00;99.90
11242;DHT22;5678;52.370;9.006;2022-10-16T03:13:37;11.00;99.90
11242;DHT22;5678;52.370;9.006;2022-10-16T03:16:05;11.00;99.90
11242;DHT22;5678;52.370;9.006;2022-10-16T03:18:34;11.00;99.90
11242;DHT22;5678;52.370;9.006;2022-10-16T03:21:02;11.70;99.90
11242;DHT22;5678;52.370;9.006;2022-10-16T03:23:30;11.00;99.90
11242;DHT22;5678;52.370;9.006;2022-10-16T03:25:58;13.20;99.90
11242;DHT22;5678;52.370;9.006;2022-10-16T03:28:26;11.00;99.90
11242;DHT22;5678;52.370;9.006;2022-10-16T03:30:54;11.00;99.90
11242;DHT22;5678;52.370;9.006;2022-10-16T03:33:22;11.00;99.90
11242;DHT22;5678;52.370;9.006;2022-10-16T03:35:54;12.90;99.90
11242;DHT22;5678;52.370;9.006;2022-10-16T03:38:22;11.00;99.90
11242;DHT22;5678;52.370;9.006;2022-10-16T03:40:50;11.00;99.90
11242;DHT22;5678;52.370;9.006;2022-10-16T03:43:18;11.40;99.90
11242;DHT22;5678;52.370;9.006;2022-10-16T03:45:46;11.00;99.90
11242;DHT22;5678;52.370;9.006;2022-10-16T03:48:14;11.00;99.90
11242;DHT22;5678;52.370;9.006;2022-10-16T03:50:42;11.20;99.90
11242;DHT22;5678;52.370;9.006;2022-10-16T03:53:11;11.80;99.90
11242;DHT22;5678;52.370;9.006;2022-10-16T03:55:41;11.00;99.90
11242;DHT22;5678;52.370;9.006;2022-10-16T03:58:09;11.00;99.90
11242;DHT22;5678;52.370;9.006;2022-10-16T04:00:40;11.40;99.90
11242;DHT22;5678;52.370;9.006;2022-10-16T04:03:08;11.00;99.90
11242;DHT22;5678;52.370;9.006;2022-10-16T04:05:36;10.90;99.90
11242;DHT22;5678;52.370;9.006;2022-10-16T04:08:04;10.90;99.90
11242;DHT22;5678;52.370;9.006;2022-10-16T04:10:33;10.90;99.90
11242;DHT22;5678;52.370;9.006;2022-10-16T04:13:01;10.90;99.90
11242;DHT22;5678;52.370;9.006;2022-10-16T04:15:29;11.30;99.90
11242;DHT22;5678;52.370;9.006;2022-10-16T04:17:57;12.40;99.90
11242;DHT22;5678;52.370;9.006;2022-10-16T04:20:25;11.40;99.90
11242;DHT22;5678;52.370;9.006;2022-10-16T04:22:53;10.80;99.90
11242;DHT22;5678;52.370;9.006;2022-10-16T04:25:21;10.80;99.90
11242;DHT22;5678;52.370;9.006;2022-10-16T04:27:52;10.70;99.90
11242;DHT22;5678;52.370;9.006;2022-10-16T04:30:21;10.70;99.90
11242;DHT22;5678;52.370;9.006;2022-10-16T04:32:49;10.80;99.90
11242;DHT22;5678;52.370;9.006;2022-10-16T04:35:17;11.40;99.90
11242;DHT22;5678;52.370;9.006;2022-10-16T04:37:45;10.70;99.90
11242;DHT22;5678;52.370;9.006;2022-10-16T04:40:13;10.80;99.90
11242;DHT22;5678;52.370;9.006;2022-10-16T04:42:41;10.80;99.90
11242;DHT22;5678;52.370;9.006;2022-10-16T04:45:11;10.80;99.90
11242;DHT22;5678;52.370;9.006;2022-10-16T04:47:42;10.80;99.90
11242;DHT22;5678;52.370;9.006;2022-10-16T04:50:11;10.80;99.90
11242;DHT22;5678;52.370;9.006;2022-10-16T04:52:38;12.00;99.90
11242;DHT22;5678;52.370;9.006;2022-10-16T04:55:07;10.90;99.90
11242;DHT22;5678;52.370;9.006;2022-10-16T04:57:35;10.90;99.90
11242;DHT22;5678;52.370;9.006;2022-10-16T05:00:04;11.00;99.90
11242;DHT22;5678;52.370;9.006;2022-10-16T05:02:33;11.00;99.90
11242;DHT22;5678;52.370;9.006;2022-10-16T05:05:01;12.00;99.90
11242;DHT22;5678;52.370;9.006;2022-10-16T05:07:29;11.00;99.90
11242;DHT22;5678;52.370;9.006;2022-10-16T05:09:57;11.00;99.90
11242;DHT22;5678;52.370;9.006;2022-10-16T05:12:25;12.20;99.90
11242;DHT22;5678;52.370;9.006;2022-10-16T05:14:53;10.90;99.90
11242;DHT22;5678;52.370;9.006;2022-10-16T05:17:25;10.90;99.90
11242;DHT22;5678;52.370;9.006;2022-10-16T05:19:55;11.40;99.90
11242;DHT22;5678;52.370;9.006;2022-10-16T05:22:23;10.90;99.90
11242;DHT22;5678;52.370;9.006;2022-10-16T05:24:50;10.80;99.90
11242;DHT22;5678;52.370;9.006;2022-10-16T05:27:18;10.80;99.90
11242;DHT22;5678;52.370;9.006;2022-10-16T05:29:47;12.70;99.90
11242;DHT22;5678;52.370;9.006;2022-10-16T05:32:16;10.80;99.90
11242;DHT22;5678;52.370;9.006;2022-10-16T05:34:45;11.60;99.90
11242;DHT22;5678;52.370;9.006;2022-10-16T05:37:14;10.70;99.90
11242;DHT22;5678;52.370;9.006;2022-10-16T05:39:42;10.70;99.90
11242;DHT22;5678;52.370;9.006;2022-10-16T05:42:10;10.80;99.90
11242;DHT22;5678;52.370;9.006;2022-10-16T05:44:38;10.70;99.90
11242;DHT22;5678;52.370;9.006;2022-10-16T05:47:06;10.80;99.90
11242;DHT22;5678;52.370;9.006;2022-10-16T05:49:34;10.70;99.90
11242;DHT22;5678;52.370;9.006;2022-10-16T05:52:07;10.70;99.90
11242;DHT22;5678;52.370;9.006;2022-10-16T05:54:36;10.70;99.90
11242;DHT22;5678;52.370;9.006;2022-10-16T05:57:04;10.70;99.90
11242;DHT22;5678;52.370;9.006;2022-10-16T05:59:32;10.70;99.90
11242;DHT22;5678;52.370;9.006;2022-10-16T06:02:00;10.80;99.90
11242;DHT22;5678;52.370;9.006;2022-10-16T06:04:28;10.90;99.90
11242;DHT22;5678;52.370;9.006;2022-10-16T06:06:58;11.00;99.90
11242;DHT22;5678;52.370;9.006;2022-10-16T06:09:27;11.10;99.90
11242;DHT22;5678;52.370;9.006;2022-10-16T06:11:57;11.20;99.90
11242;DHT22;5678;52.370;9.006;2022-10-16T06:14:25;11.30;99.90
11242;DHT22;5678;52.370;9.006;2022-10-16T06:16:52;11.40;99.90
11242;DHT22;5678;52.370;9.006;2022-10-16T06:19:20;11.50;99.90
11242;DHT22;5678;52.370;9.006;2022-10-16T06:21:49;11.60;99.90
11242;DHT22;5678;52.370;9.006;2022-10-16T06:24:17;12.70;99.90
11242;DHT22;5678;52.370;9.006;2022-10-16T06:26:45;11.80;99.90
11242;DHT22;5678;52.370;9.006;2022-10-16T06:29:14;12.50;99.90
11242;DHT22;5678;52.370;9.006;2022-10-16T06:31:42;12.00;99.90
11242;DHT22;5678;52.370;9.006;2022-10-16T06:34:10;14.20;99.90
11242;DHT22;5678;52.370;9.006;2022-10-16T06:36:38;14.20;99.90
11242;DHT22;5678;52.370;9.006;2022-10-16T06:39:07;12.50;99.90
11242;DHT22;5678;52.370;9.006;2022-10-16T06:41:35;12.30;99.90
11242;DHT22;5678;52.370;9.006;2022-10-16T06:44:06;13.00;99.90
11242;DHT22;5678;52.370;9.006;2022-10-16T06:46:35;12.50;99.90
11242;DHT22;5678;52.370;9.006;2022-10-16T06:49:03;12.50;99.90
11242;DHT22;5678;52.370;9.006;2022-10-16T06:51:31;12.60;99.90
11242;DHT22;5678;52.370;9.006;2022-10-16T06:54:06;12.60;99.90
11242;DHT22;5678;52.370;9.006;2022-10-16T06:56:34;13.30;99.90
11242;DHT22;5678;52.370;9.006;2022-10-16T06:59:03;13.70;99.90
11242;DHT22;5678;52.370;9.006;2022-10-16T07:01:31;13.70;99.90
11242;DHT22;5678;52.370;9.006;2022-10-16T07:04:01;12.80;99.90
11242;DHT22;5678;52.370;9.006;2022-10-16T07:06:31;12.80;99.90
11242;DHT22;5678;52.370;9.006;2022-10-16T07:09:03;12.90;99.90
11242;DHT22;5678;52.370;9.006;2022-10-16T07:11:31;13.00;99.90
11242;DHT22;5678;52.370;9.006;2022-10-16T07:13:59;13.80;99.90
11242;DHT22;5678;52.370;9.006;2022-10-16T07:16:29;13.20;99.90
11242;DHT22;5678;52.370;9.006;2022-10-16T07:18:58;13.30;99.90
11242;DHT22;5678;52.370;9.006;2022-10-16T07:21:29;13.50;99.90
11242;DHT22;5678;52.370;9.006;2022-10-16T07:23:59;13.60;99.90
11242;DHT22;5678;52.370;9.006;2022-10-16T07:26:29;14.20;99.90
11242;DHT22;5678;52.370;9.006;2022-10-16T07:28:58;13.90;99.90
11242;DHT22;5678;52.370;9.006;2022-10-16T07:31:27;15.40;99.90
11242;DHT22;5678;52.370;9.006;2022-10-16T07:33:58;14.10;99.90
11242;DHT22;5678;52.370;9.006;2022-10-16T07:36:27;14.10;99.90
11242;DHT22;5678;52.370;9.006;2022-10-16T07:38:55;14.30;99.90
11242;DHT22;5678;52.370;9.006;2022-10-16T07:41:26;14.30;99.90
11242;DHT22;5678;52.370;9.006;2022-10-16T07:43:54;14.30;99.90
11242;DHT22;5678;52.370;9.006;2022-10-16T07:46:23;15.10;99.90
11242;DHT22;5678;52.370;9.006;2022-10-16T07:48:51;15.40;99.90
11242;DHT22;5678;52.370;9.006;2022-10-16T07:51:21;14.80;99.90
11242;DHT22;5678;52.370;9.006;2022-10-16T07:53:51;14.50;99.90
11242;DHT22;5678;52.370;9.006;2022-10-16T07:56:20;14.70;99.90
11242;DHT22;5678;52.370;9.006;2022-10-16T07:58:49;14.30;99.90
11242;DHT22;5678;52.370;9.006;2022-10-16T08:01:18;15.00;99.90
11242;DHT22;5678;52.370;9.006;2022-10-16T08:03:47;15.30;99.90
11242;DHT22;5678;52.370;9.006;2022-10-16T08:06:15;14.20;99.90
11242;DHT22;5678;52.370;9.006;2022-10-16T08:08:47;15.80;99.90
11242;DHT22;5678;52.370;9.006;2022-10-16T08:11:17;14.60;99.90
11242;DHT22;5678;52.370;9.006;2022-10-16T08:13:45;14.40;99.90
11242;DHT22;5678;52.370;9.006;2022-10-16T08:16:13;14.90;99.90
11242;DHT22;5678;52.370;9.006;2022-10-16T08:18:41;14.70;99.90
11242;DHT22;5678;52.370;9.006;2022-10-16T08:21:13;14.80;99.90
11242;DHT22;5678;52.370;9.006;2022-10-16T08:23:47;15.60;99.90
11242;DHT22;5678;52.370;9.006;2022-10-16T08:26:26;15.00;99.90
11242;DHT22;5678;52.370;9.006;2022-10-16T08:28:54;16.20;99.90
11242;DHT22;5678;52.370;9.006;2022-10-16T08:31:23;15.40;99.90
11242;DHT22;5678;52.370;9.006;2022-10-16T08:33:54;15.40;99.90
11242;DHT22;5678;52.370;9.006;2022-10-16T08:36:22;15.70;99.90
11242;DHT22;5678;52.370;9.006;2022-10-16T08:38:50;16.40;99.90
11242;DHT22;5678;52.370;9.006;2022-10-16T08:41:53;15.90;99.90
11242;DHT22;5678;52.370;9.006;2022-10-16T08:44:34;15.60;99.90
11242;DHT22;5678;52.370;9.006;2022-10-16T08:47:13;15.70;99.90
11242;DHT22;5678;52.370;9.006;2022-10-16T08:49:56;16.30;99.90
11242;DHT22;5678;52.370;9.006;2022-10-16T08:52:29;16.00;99.90
11242;DHT22;5678;52.370;9.006;2022-10-16T08:54:57;16.00;99.90
11242;DHT22;5678;52.370;9.006;2022-10-16T08:57:27;16.70;99.90
11242;DHT22;5678;52.370;9.006;2022-10-16T08:59:59;16.30;99.90
11242;DHT22;5678;52.370;9.006;2022-10-16T09:02:32;16.60;99.90
11242;DHT22;5678;52.370;9.006;2022-10-16T09:05:30;16.60;99.90
11242;DHT22;5678;52.370;9.006;2022-10-16T09:08:09;16.60;99.90
11242;DHT22;5678;52.370;9.006;2022-10-16T09:10:47;16.80;99.90
11242;DHT22;5678;52.370;9.006;2022-10-16T09:13:23;16.80;99.90
11242;DHT22;5678;52.370;9.006;2022-10-16T09:15:58;17.00;99.90
11242;DHT22;5678;52.370;9.006;2022-10-16T09:18:31;17.00;99.90
11242;DHT22;5678;52.370;9.006;2022-10-16T09:21:07;17.10;99.90
11242;DHT22;5678;52.370;9.006;2022-10-16T09:23:37;17.10;99.90
11242;DHT22;5678;52.370;9.006;2022-10-16T09:26:05;17.20;99.90
11242;DHT22;5678;52.370;9.006;2022-10-16T09:28:38;17.30;99.90
11242;DHT22;5678;52.370;9.006;2022-10-16T09:31:15;17.40;99.90
11242;DHT22;5678;52.370;9.006;2022-10-16T09:33:45;17.50;99.90
11242;DHT22;5678;52.370;9.006;2022-10-16T09:36:14;17.50;99.90
11242;DHT22;5678;52.370;9.006;2022-10-16T09:38:42;17.60;99.90
11242;DHT22;5678;52.370;9.006;2022-10-16T09:41:18;17.60;99.90
11242;DHT22;5678;52.370;9.006;2022-10-16T09:43:52;17.60;99.90
11242;DHT22;5678;52.370;9.006;2022-10-16T09:46:28;17.60;99.90
11242;DHT22;5678;52.370;9.006;2022-10-16T09:48:58;17.50;99.90
11242;DHT22;5678;52.370;9.006;2022-10-16T09:51:29;17.60;99.90
11242;DHT22;5678;52.370;9.006;2022-10-16T09:53:59;17.90;99.90
11242;DHT22;5678;52.370;9.006;2022-10-16T09:56:29;17.70;99.90
11242;DHT22;5678;52.370;9.006;2022-10-16T09:59:02;17.90;99.90
11242;DHT22;5678;52.370;9.006;2022-10-16T10:01:35;18.10;99.90
11242;DHT22;5678;52.370;9.006;2022-10-16T10:04:05;18.20;99.90
11242;DHT22;5678;52.370;9.006;2022-10-16T10:06:36;18.30;99.90
11242;DHT22;5678;52.370;9.006;2022-10-16T10:09:14;18.30;99.90
11242;DHT22;5678;52.370;9.006;2022-10-16T10:11:47;18.50;99.90
11242;DHT22;5678;52.370;9.006;2022-10-16T10:14:24;18.30;99.90
11242;DHT22;5678;52.370;9.006;2022-10-16T10:17:02;18.40;99.90
11242;DHT22;5678;52.370;9.006;2022-10-16T10:19:36;18.40;99.90
11242;DHT22;5678;52.370;9.006;2022-10-16T10:22:16;18.60;99.90
11242;DHT22;5678;52.370;9.006;2022-10-16T10:24:46;18.70;99.90
11242;DHT22;5678;52.370;9.006;2022-10-16T10:27:25;18.70;99.90
11242;DHT22;5678;52.370;9.006;2022-10-16T10:30:02;18.70;99.90
11242;DHT22;5678;52.370;9.006;2022-10-16T10:32:42;18.60;99.90
11242;DHT22;5678;52.370;9.006;2022-10-16T10:35:18;18.60;99.90
11242;DHT22;5678;52.370;9.006;2022-10-16T10:38:00;18.60;99.90
11242;DHT22;5678;52.370;9.006;2022-10-16T10:40:40;18.70;99.90
11242;DHT22;5678;52.370;9.006;2022-10-16T10:43:20;18.70;99.90
11242;DHT22;5678;52.370;9.006;2022-10-16T10:45:54;18.80;99.90
11242;DHT22;5678;52.370;9.006;2022-10-16T10:48:43;18.70;99.90
11242;DHT22;5678;52.370;9.006;2022-10-16T10:51:21;18.80;99.90
11242;DHT22;5678;52.370;9.006;2022-10-16T10:53:56;18.90;99.90
11242;DHT22;5678;52.370;9.006;2022-10-16T10:56:41;18.90;99.90
11242;DHT22;5678;52.370;9.006;2022-10-16T10:59:32;19.10;99.90
11242;DHT22;5678;52.370;9.006;2022-10-16T11:02:13;19.20;99.90
11242;DHT22;5678;52.370;9.006;2022-10-16T11:05:14;19.10;99.90
11242;DHT22;5678;52.370;9.006;2022-10-16T11:07:49;19.20;99.90
11242;DHT22;5678;52.370;9.006;2022-10-16T11:10:21;19.30;99.90
11242;DHT22;5678;52.370;9.006;2022-10-16T11:12:53;19.20;99.90
11242;DHT22;5678;52.370;9.006;2022-10-16T11:15:28;19.30;99.90
11242;DHT22;5678;52.370;9.006;2022-10-16T11:18:04;19.40;99.90
11242;DHT22;5678;52.370;9.006;2022-10-16T11:20:39;19.60;99.90
11242;DHT22;5678;52.370;9.006;2022-10-16T11:23:11;19.40;99.90
11242;DHT22;5678;52.370;9.006;2022-10-16T11:25:43;19.30;99.90
11242;DHT22;5678;52.370;9.006;2022-10-16T11:28:15;19.30;99.90
11242;DHT22;5678;52.370;9.006;2022-10-16T11:30:49;19.20;99.90
11242;DHT22;5678;52.370;9.006;2022-10-16T11:33:28;19.30;99.90
11242;DHT22;5678;52.370;9.006;2022-10-16T11:36:05;19.30;99.90
11242;DHT22;5678;52.370;9.006;2022-10-16T11:38:37;19.30;99.90
11242;DHT22;5678;52.370;9.006;2022-10-16T11:41:15;19.40;99.90
11242;DHT22;5678;52.370;9.006;2022-10-16T11:43:52;19.30;99.90
11242;DHT22;5678;52.370;9.006;2022-10-16T11:46:24;19.20;99.90
11242;DHT22;5678;52.370;9.006;2022-10-16T11:48:57;19.10;99.90
11242;DHT22;5678;52.370;9.006;2022-10-16T11:51:33;19.00;99.90
11242;DHT22;5678;52.370;9.006;2022-10-16T11:54:10;19.10;99.90
11242;DHT22;5678;52.370;9.006;2022-10-16T11:56:45;19.10;99.90
11242;DHT22;5678;52.370;9.006;2022-10-16T11:59:22;19.10;99.90
11242;DHT22;5678;52.370;9.006;2022-10-16T12:01:54;19.20;99.90
11242;DHT22;5678;52.370;9.006;2022-10-16T12:04:30;19.20;99.90
11242;DHT22;5678;52.370;9.006;2022-10-16T12:07:04;19.20;99.90
11242;DHT22;5678;52.370;9.006;2022-10-16T12:09:37;19.20;99.90
11242;DHT22;5678;52.370;9.006;2022-10-16T12:12:24;19.10;99.90
11242;DHT22;5678;52.370;9.006;2022-10-16T12:15:03;19.20;99.90
11242;DHT22;5678;52.370;9.006;2022-10-16T12:18:22;19.20;99.90
11242;DHT22;5678;52.370;9.006;2022-10-16T12:20:56;19.20;99.90
11242;DHT22;5678;52.370;9.006;2022-10-16T12:23:26;19.30;99.90
11242;DHT22;5678;52.370;9.006;2022-10-16T12:25:55;19.40;99.90
11242;DHT22;5678;52.370;9.006;2022-10-16T12:28:27;19.70;99.90
11242;DHT22;5678;52.370;9.006;2022-10-16T12:30:58;19.90;99.90
11242;DHT22;5678;52.370;9.006;2022-10-16T12:33:28;20.00;99.90
11242;DHT22;5678;52.370;9.006;2022-10-16T12:35:59;20.10;99.90
11242;DHT22;5678;52.370;9.006;2022-10-16T12:38:28;20.20;99.90
11242;DHT22;5678;52.370;9.006;2022-10-16T12:41:02;20.10;99.90
11242;DHT22;5678;52.370;9.006;2022-10-16T12:43:39;20.10;99.90
11242;DHT22;5678;52.370;9.006;2022-10-16T12:46:37;20.10;99.90
11242;DHT22;5678;52.370;9.006;2022-10-16T12:49:19;19.90;99.90
11242;DHT22;5678;52.370;9.006;2022-10-16T12:51:49;20.20;99.90
11242;DHT22;5678;52.370;9.006;2022-10-16T12:54:19;19.80;99.90
11242;DHT22;5678;52.370;9.006;2022-10-16T12:56:58;19.70;99.90
11242;DHT22;5678;52.370;9.006;2022-10-16T12:59:35;19.60;99.90
11242;DHT22;5678;52.370;9.006;2022-10-16T13:02:34;19.40;99.90
11242;DHT22;5678;52.370;9.006;2022-10-16T13:05:26;19.30;99.90
11242;DHT22;5678;52.370;9.006;2022-10-16T13:08:09;19.30;99.90
11242;DHT22;5678;52.370;9.006;2022-10-16T13:10:41;19.30;99.90
11242;DHT22;5678;52.370;9.006;2022-10-16T13:13:23;19.20;99.90
11242;DHT22;5678;52.370;9.006;2022-10-16T13:16:06;19.30;99.90
11242;DHT22;5678;52.370;9.006;2022-10-16T13:18:44;19.30;99.90
11242;DHT22;5678;52.370;9.006;2022-10-16T13:21:24;19.30;99.90
11242;DHT22;5678;52.370;9.006;2022-10-16T13:24:00;19.40;99.90
11242;DHT22;5678;52.370;9.006;2022-10-16T13:26:36;19.30;99.90
11242;DHT22;5678;52.370;9.006;2022-10-16T13:29:07;19.20;99.90
11242;DHT22;5678;52.370;9.006;2022-10-16T13:31:38;19.20;99.90
11242;DHT22;5678;52.370;9.006;2022-10-16T13:34:12;19.60;99.90
11242;DHT22;5678;52.370;9.006;2022-10-16T13:36:46;19.20;99.90
11242;DHT22;5678;52.370;9.006;2022-10-16T13:39:22;19.10;99.90
11242;DHT22;5678;52.370;9.006;2022-10-16T13:42:05;19.10;99.90
11242;DHT22;5678;52.370;9.006;2022-10-16T13:44:39;19.20;99.90
11242;DHT22;5678;52.370;9.006;2022-10-16T13:47:16;19.10;99.90
11242;DHT22;5678;52.370;9.006;2022-10-16T13:49:45;19.00;99.90
11242;DHT22;5678;52.370;9.006;2022-10-16T13:52:17;19.10;99.90
11242;DHT22;5678;52.370;9.006;2022-10-16T13:54:47;19.10;99.90
11242;DHT22;5678;52.370;9.006;2022-10-16T13:57:16;19.10;99.90
11242;DHT22;5678;52.370;9.006;2022-10-16T13:59:59;19.10;99.90
11242;DHT22;5678;52.370;9.006;2022-10-16T14:02:29;19.00;99.90
11242;DHT22;5678;52.370;9.006;2022-10-16T14:04:58;19.00;99.90
11242;DHT22;5678;52.370;9.006;2022-10-16T14:07:28;19.00;99.90
11242;DHT22;5678;52.370;9.006;2022-10-16T14:10:02;19.00;99.90
11242;DHT22;5678;52.370;9.006;2022-10-16T14:12:31;18.90;99.90
11242;DHT22;5678;52.370;9.006;2022-10-16T14:15:00;18.80;99.90
11242;DHT22;5678;52.370;9.006;2022-10-16T14:17:31;18.70;99.90
11242;DHT22;5678;52.370;9.006;2022-10-16T14:20:00;18.80;99.90
11242;DHT22;5678;52.370;9.006;2022-10-16T14:22:34;18.70;99.90
11242;DHT22;5678;52.370;9.006;2022-10-16T14:25:20;18.70;99.90
11242;DHT22;5678;52.370;9.006;2022-10-16T14:27:58;18.60;99.90
11242;DHT22;5678;52.370;9.006;2022-10-16T14:30:35;18.60;99.90
11242;DHT22;5678;52.370;9.006;2022-10-16T14:33:21;18.60;99.90
11242;DHT22;5678;52.370;9.006;2022-10-16T14:36:01;18.50;99.90
11242;DHT22;5678;52.370;9.006;2022-10-16T14:38:31;18.60;99.90
11242;DHT22;5678;52.370;9.006;2022-10-16T14:41:01;18.50;99.90
11242;DHT22;5678;52.370;9.006;2022-10-16T14:43:33;18.40;99.90
11242;DHT22;5678;52.370;9.006;2022-10-16T14:46:03;18.50;99.90
11242;DHT22;5678;52.370;9.006;2022-10-16T14:48:36;18.50;99.90
11242;DHT22;5678;52.370;9.006;2022-10-16T14:51:13;19.70;99.90
11242;DHT22;5678;52.370;9.006;2022-10-16T14:53:41;18.30;99.90
11242;DHT22;5678;52.370;9.006;2022-10-16T14:56:16;18.20;99.90
11242;DHT22;5678;52.370;9.006;2022-10-16T14:58:45;18.30;99.90
11242;DHT22;5678;52.370;9.006;2022-10-16T15:01:13;18.10;99.90
11242;DHT22;5678;52.370;9.006;2022-10-16T15:03:41;18.10;99.90
11242;DHT22;5678;52.370;9.006;2022-10-16T15:06:10;18.20;99.90
11242;DHT22;5678;52.370;9.006;2022-10-16T15:08:39;18.00;99.90
11242;DHT22;5678;52.370;9.006;2022-10-16T15:11:11;18.00;99.90
11242;DHT22;5678;52.370;9.006;2022-10-16T15:13:40;18.00;99.90
11242;DHT22;5678;52.370;9.006;2022-10-16T15:16:10;17.80;99.90
11242;DHT22;5678;52.370;9.006;2022-10-16T15:18:39;17.80;99.90
11242;DHT22;5678;52.370;9.006;2022-10-16T15:21:07;17.80;99.90
11242;DHT22;5678;52.370;9.006;2022-10-16T15:23:35;17.70;99.90
11242;DHT22;5678;52.370;9.006;2022-10-16T15:26:07;17.60;99.90
11242;DHT22;5678;52.370;9.006;2022-10-16T15:28:39;17.60;99.90
11242;DHT22;5678;52.370;9.006;2022-10-16T15:31:07;17.50;99.90
11242;DHT22;5678;52.370;9.006;2022-10-16T15:33:36;17.60;99.90
11242;DHT22;5678;52.370;9.006;2022-10-16T15:36:07;17.40;99.90
11242;DHT22;5678;52.370;9.006;2022-10-16T15:38:36;17.30;99.90
11242;DHT22;5678;52.370;9.006;2022-10-16T15:41:07;17.20;99.90
11242;DHT22;5678;52.370;9.006;2022-10-16T15:43:35;17.20;99.90
11242;DHT22;5678;52.370;9.006;2022-10-16T15:46:11;17.70;99.90
11242;DHT22;5678;52.370;9.006;2022-10-16T15:48:44;17.50;99.90
11242;DHT22;5678;52.370;9.006;2022-10-16T15:51:16;17.00;99.90
11242;DHT22;5678;52.370;9.006;2022-10-16T15:53:44;17.20;99.90
11242;DHT22;5678;52.370;9.006;2022-10-16T15:56:14;16.90;99.90
11242;DHT22;5678;52.370;9.006;2022-10-16T15:58:43;16.80;99.90
11242;DHT22;5678;52.370;9.006;2022-10-16T16:01:13;16.70;99.90
11242;DHT22;5678;52.370;9.006;2022-10-16T16:03:41;16.60;99.90
11242;DHT22;5678;52.370;9.006;2022-10-16T16:06:12;17.20;99.90
11242;DHT22;5678;52.370;9.006;2022-10-16T16:08:40;16.40;99.90
11242;DHT22;5678;52.370;9.006;2022-10-16T16:11:09;16.30;99.90
11242;DHT22;5678;52.370;9.006;2022-10-16T16:13:38;16.60;99.90
11242;DHT22;5678;52.370;9.006;2022-10-16T16:16:11;16.00;99.90